< < Back
Terminal Aerodrome Forecast


Current Version              Previous Versions:   1  2  3  4  5  6  7  8  9  

Terminal Aerodrome Forecast

858
FTUS42 KCAE 141434 AAA
TAFAGS
TAF AMD
KAGS 141434Z 1415/1512 07010KT P6SM BKN080
     FM142000 08006KT P6SM OVC060
     FM150600 07005KT P6SM OVC015=

Latest METAR

607
SAUS70 KWBC 141400 RRB
MTRAGS
METAR KAGS 141353Z 07011KT 10SM CLR M01/M14 A3049 RMK AO2 SLP325
T10061139


USA.gov is the U.S. government's official web portal to all federal, state and local government web resources and services.